createdAt,value
2019-03-28T00:01:15.889Z,18.60
2019-03-28T00:03:45.679Z,19.03
2019-03-28T00:06:14.132Z,20.60
2019-03-28T00:08:42.747Z,19.30
2019-03-28T00:11:11.670Z,20.17
2019-03-28T00:13:40.342Z,16.57
2019-03-28T00:16:08.895Z,16.10
2019-03-28T00:18:37.350Z,16.43
2019-03-28T00:21:05.905Z,16.90
2019-03-28T00:23:49.505Z,16.90
2019-03-28T00:26:29.390Z,19.03
2019-03-28T00:28:48.597Z,16.67
2019-03-28T00:31:17.182Z,17.93
2019-03-28T00:33:45.846Z,18.40
2019-03-28T00:36:15.440Z,23.30
2019-03-28T00:38:44.228Z,16.83
2019-03-28T00:41:13.121Z,18.63
2019-03-28T00:43:41.986Z,19.50
2019-03-28T00:46:10.628Z,17.47
2019-03-28T00:48:39.942Z,21.63
2019-03-28T00:51:08.939Z,16.63
2019-03-28T00:53:37.394Z,15.80
2019-03-28T00:56:06.477Z,18.83
2019-03-28T00:58:35.224Z,18.33
2019-03-28T01:01:05.116Z,19.37
2019-03-28T01:03:33.978Z,16.70
2019-03-28T01:06:02.478Z,15.93
2019-03-28T01:08:31.402Z,17.50
2019-03-28T01:11:00.473Z,16.63
2019-03-28T01:13:29.180Z,18.97
2019-03-28T01:15:58.260Z,15.67
2019-03-28T01:18:27.229Z,21.47
2019-03-28T01:20:56.672Z,18.43
2019-03-28T01:23:25.679Z,17.13
2019-03-28T01:25:54.637Z,18.50
2019-03-28T01:28:26.373Z,18.93
2019-03-28T01:30:54.078Z,17.67
2019-03-28T01:33:23.157Z,15.77
2019-03-28T01:35:52.157Z,18.90
2019-03-28T01:38:21.258Z,16.30
2019-03-28T01:40:51.078Z,19.60
2019-03-28T01:43:18.561Z,23.07
2019-03-28T01:45:47.019Z,18.40
2019-03-28T01:48:16.036Z,16.50
2019-03-28T01:50:44.849Z,18.70
2019-03-28T01:53:13.813Z,17.83
2019-03-28T01:55:42.516Z,18.23
2019-03-28T01:58:11.480Z,17.53
2019-03-28T02:00:40.657Z,18.47
2019-03-28T02:03:10.009Z,17.57
2019-03-28T02:05:39.000Z,20.17
2019-03-28T02:08:07.494Z,18.30
2019-03-28T02:10:36.424Z,17.67
2019-03-28T02:13:05.114Z,17.63
2019-03-28T02:15:33.945Z,20.23
2019-03-28T02:18:03.292Z,18.60
2019-03-28T02:20:32.213Z,20.80
2019-03-28T02:23:01.275Z,21.37
2019-03-28T02:25:29.848Z,19.97
2019-03-28T02:27:59.602Z,21.00
2019-03-28T02:30:32.400Z,21.70
2019-03-28T02:33:02.193Z,21.17
2019-03-28T02:35:31.721Z,21.23
2019-03-28T02:38:00.897Z,22.93
2019-03-28T02:40:29.907Z,20.90
2019-03-28T02:42:58.717Z,24.83
2019-03-28T02:45:27.811Z,19.83
2019-03-28T02:47:56.520Z,22.80
2019-03-28T02:50:25.588Z,19.77
2019-03-28T02:52:54.684Z,22.50
2019-03-28T02:55:23.864Z,19.73
2019-03-28T02:57:53.754Z,21.60
2019-03-28T03:00:22.647Z,18.90
2019-03-28T03:02:51.771Z,21.57
2019-03-28T03:05:20.790Z,22.93
2019-03-28T03:07:50.328Z,18.50
2019-03-28T03:10:18.910Z,24.00
2019-03-28T03:12:47.743Z,20.00
2019-03-28T03:15:16.291Z,20.07
2019-03-28T03:17:45.216Z,20.17
2019-03-28T03:20:14.519Z,17.77
2019-03-28T03:22:43.734Z,18.43
2019-03-28T03:25:12.888Z,20.13
2019-03-28T03:27:57.130Z,19.23
2019-03-28T03:30:13.001Z,19.47
2019-03-28T03:32:42.277Z,24.13
2019-03-28T03:35:11.464Z,18.27
2019-03-28T03:37:40.188Z,22.23
2019-03-28T03:40:08.984Z,19.23
2019-03-28T03:42:37.986Z,17.60
2019-03-28T03:45:08.994Z,23.13
2019-03-28T03:47:38.434Z,22.00
2019-03-28T03:50:08.478Z,20.40
2019-03-28T03:52:37.818Z,22.27
2019-03-28T03:55:07.281Z,18.67
2019-03-28T03:57:35.346Z,18.83
2019-03-28T04:00:05.160Z,16.83
2019-03-28T04:02:34.880Z,18.40
2019-03-28T04:05:04.523Z,18.60
2019-03-28T04:07:33.325Z,17.07
2019-03-28T04:10:02.279Z,18.07
2019-03-28T04:12:31.610Z,15.60
2019-03-28T04:15:00.851Z,17.57
2019-03-28T04:17:29.810Z,21.70
2019-03-28T04:19:58.946Z,20.70
2019-03-28T04:22:27.808Z,17.33
2019-03-28T04:24:56.614Z,17.80
2019-03-28T04:27:25.177Z,18.27
2019-03-28T04:29:54.637Z,18.03
2019-03-28T04:32:23.495Z,19.67
2019-03-28T04:34:52.186Z,17.03
2019-03-28T04:37:21.142Z,15.40
2019-03-28T04:39:49.922Z,19.70
2019-03-28T04:42:18.570Z,15.50
2019-03-28T04:44:47.105Z,18.83
2019-03-28T04:47:15.678Z,17.03
2019-03-28T04:49:44.385Z,19.83
2019-03-28T04:52:13.094Z,19.37
2019-03-28T04:54:41.574Z,21.90
2019-03-28T04:57:10.105Z,19.80
2019-03-28T04:59:38.665Z,18.50
2019-03-28T05:02:07.219Z,17.33
2019-03-28T05:04:40.522Z,20.63
2019-03-28T05:07:08.541Z,18.80
2019-03-28T05:09:36.671Z,16.83
2019-03-28T05:12:05.125Z,17.10
2019-03-28T05:14:33.765Z,21.23
2019-03-28T05:17:02.519Z,21.43
2019-03-28T05:19:31.403Z,20.23
2019-03-28T05:22:00.205Z,16.33
2019-03-28T05:24:29.314Z,18.73
2019-03-28T05:26:58.062Z,18.57
2019-03-28T05:29:28.126Z,19.70
2019-03-28T05:31:57.086Z,20.20
2019-03-28T05:34:26.089Z,17.20
2019-03-28T05:36:54.826Z,20.13
2019-03-28T05:39:24.011Z,19.50
2019-03-28T05:41:52.998Z,18.30
2019-03-28T05:44:21.963Z,23.87
2019-03-28T05:46:50.731Z,19.30
2019-03-28T05:49:19.961Z,22.03
2019-03-28T05:51:49.141Z,21.63
2019-03-28T05:54:18.179Z,21.53
2019-03-28T05:56:47.198Z,20.10
2019-03-28T05:59:16.714Z,20.67
2019-03-28T06:01:45.290Z,24.33
2019-03-28T06:04:14.188Z,19.23
2019-03-28T06:06:43.163Z,20.73
2019-03-28T06:09:12.140Z,20.80
2019-03-28T06:11:43.966Z,27.37
2019-03-28T06:14:20.750Z,19.80
2019-03-28T06:16:49.811Z,16.80
2019-03-28T06:19:20.773Z,19.97
2019-03-28T06:21:50.014Z,27.37
2019-03-28T06:24:19.422Z,23.30
2019-03-28T06:26:50.074Z,26.77
2019-03-28T06:29:24.234Z,30.53
2019-03-28T06:31:55.269Z,19.97
2019-03-28T06:34:22.876Z,19.37
2019-03-28T06:36:51.870Z,20.23
2019-03-28T06:39:21.367Z,23.57
2019-03-28T06:41:51.349Z,22.83
2019-03-28T06:44:20.670Z,19.97
2019-03-28T06:46:49.473Z,20.43
2019-03-28T06:49:18.249Z,31.17
2019-03-28T06:51:47.224Z,27.03
2019-03-28T06:54:18.874Z,23.80
2019-03-28T06:56:47.686Z,21.80
2019-03-28T06:59:16.249Z,21.40
2019-03-28T07:01:44.893Z,20.70
2019-03-28T07:04:13.438Z,20.83
2019-03-28T07:06:42.023Z,22.80
2019-03-28T07:09:10.701Z,26.60
2019-03-28T07:11:39.594Z,25.37
2019-03-28T07:14:08.152Z,18.13
2019-03-28T07:16:36.807Z,27.37
2019-03-28T07:19:05.481Z,25.33
2019-03-28T07:21:34.054Z,21.17
2019-03-28T07:24:02.844Z,21.87
2019-03-28T07:26:31.932Z,25.00
2019-03-28T07:29:00.502Z,23.57
2019-03-28T07:31:29.606Z,22.77
2019-03-28T07:33:58.896Z,27.00
2019-03-28T07:36:27.684Z,24.47
2019-03-28T07:38:56.500Z,26.27
2019-03-28T07:41:25.306Z,24.70
2019-03-28T07:43:53.859Z,26.60
2019-03-28T07:46:22.671Z,23.87
2019-03-28T07:48:51.658Z,24.27
2019-03-28T07:51:20.208Z,19.67
2019-03-28T07:53:49.008Z,24.07
2019-03-28T07:56:17.481Z,24.77
2019-03-28T07:58:46.066Z,24.00
2019-03-28T08:01:17.907Z,23.70
2019-03-28T08:03:45.490Z,25.97
2019-03-28T08:06:14.149Z,29.27
2019-03-28T08:08:44.158Z,27.97
2019-03-28T08:11:12.947Z,23.27
2019-03-28T08:13:41.545Z,23.77
2019-03-28T08:16:09.993Z,21.97
2019-03-28T08:18:38.649Z,22.80
2019-03-28T08:21:07.445Z,20.33
2019-03-28T08:23:35.910Z,19.47
2019-03-28T08:26:04.511Z,22.10
2019-03-28T08:28:33.138Z,22.63
2019-03-28T08:31:01.777Z,21.37
2019-03-28T08:33:33.145Z,22.40
2019-03-28T08:36:01.809Z,21.50
2019-03-28T08:38:32.903Z,19.53
2019-03-28T08:41:01.630Z,20.00
2019-03-28T08:43:30.083Z,22.10
2019-03-28T08:45:58.738Z,18.57
2019-03-28T08:48:27.299Z,24.33
2019-03-28T08:50:55.829Z,22.50
2019-03-28T08:53:24.533Z,21.67
2019-03-28T08:55:53.017Z,21.57
2019-03-28T08:58:21.526Z,22.03
2019-03-28T09:00:52.822Z,16.83
2019-03-28T09:03:20.506Z,16.83
2019-03-28T09:05:48.954Z,24.20
2019-03-28T09:08:17.513Z,21.30
2019-03-28T09:10:46.171Z,19.10
2019-03-28T09:13:14.726Z,18.10
2019-03-28T09:15:46.067Z,18.00
2019-03-28T09:18:14.513Z,14.07
2019-03-28T09:20:42.982Z,14.03
2019-03-28T09:23:11.447Z,12.87
2019-03-28T09:25:39.971Z,14.50
2019-03-28T09:28:12.754Z,13.27
2019-03-28T09:30:48.763Z,13.30
2019-03-28T09:33:12.178Z,18.50
2019-03-28T09:35:40.964Z,14.93
2019-03-28T09:38:09.856Z,15.27
2019-03-28T09:40:41.166Z,16.97
2019-03-28T09:43:09.606Z,14.57
2019-03-28T09:45:38.154Z,15.03
2019-03-28T09:48:06.821Z,16.20
2019-03-28T09:50:35.465Z,13.13
2019-03-28T09:53:06.385Z,13.37
2019-03-28T09:55:35.545Z,15.03
2019-03-28T09:58:04.887Z,12.40
2019-03-28T10:00:34.710Z,14.00
2019-03-28T10:03:07.850Z,14.10
2019-03-28T10:05:38.210Z,15.70
2019-03-28T10:08:07.330Z,14.20
2019-03-28T10:10:36.410Z,15.20
2019-03-28T10:13:04.985Z,11.60
2019-03-28T10:15:37.010Z,14.53
2019-03-28T10:18:06.591Z,13.20
2019-03-28T10:20:35.668Z,14.10
2019-03-28T10:23:05.299Z,13.90
2019-03-28T10:25:37.774Z,9.87
2019-03-28T10:28:06.418Z,13.00
2019-03-28T10:30:42.041Z,11.70
2019-03-28T10:33:09.973Z,13.27
2019-03-28T10:35:41.230Z,14.10
2019-03-28T10:38:10.340Z,11.03
2019-03-28T10:40:39.458Z,10.10
2019-03-28T10:43:08.621Z,12.07
2019-03-28T10:45:37.283Z,14.60
2019-03-28T10:48:07.017Z,12.90
2019-03-28T10:50:42.236Z,13.63
2019-03-28T10:53:06.679Z,18.43
2019-03-28T10:55:35.942Z,17.60
2019-03-28T10:58:17.475Z,10.30
2019-03-28T11:00:36.289Z,12.73
2019-03-28T11:03:05.544Z,11.47
2019-03-28T11:05:34.349Z,13.37
2019-03-28T11:08:03.178Z,9.73
2019-03-28T11:10:31.982Z,12.20
2019-03-28T11:13:01.623Z,11.10
2019-03-28T11:15:30.185Z,11.40
2019-03-28T11:17:58.997Z,13.83
2019-03-28T11:20:27.793Z,10.53
2019-03-28T11:23:02.143Z,12.77
2019-03-28T11:25:29.987Z,17.57
2019-03-28T11:28:00.742Z,9.97
2019-03-28T11:30:29.540Z,10.40
2019-03-28T11:32:58.378Z,14.97
2019-03-28T11:35:27.817Z,11.20
2019-03-28T11:37:56.798Z,12.87
2019-03-28T11:40:25.613Z,15.07
2019-03-28T11:42:54.557Z,14.30
2019-03-28T11:45:23.225Z,11.77
2019-03-28T11:47:52.748Z,12.70
2019-03-28T11:50:21.305Z,10.97
2019-03-28T11:52:50.477Z,10.80
2019-03-28T11:55:19.063Z,13.90
2019-03-28T11:57:47.698Z,16.20
2019-03-28T12:00:18.453Z,11.63
2019-03-28T12:02:47.034Z,16.93
2019-03-28T12:05:15.603Z,11.60
2019-03-28T12:07:44.056Z,12.47
2019-03-28T12:10:15.608Z,15.73
2019-03-28T12:12:44.824Z,14.10
2019-03-28T12:15:13.589Z,10.20
2019-03-28T12:17:42.059Z,11.83
2019-03-28T12:20:10.915Z,14.07
2019-03-28T12:22:42.092Z,11.63
2019-03-28T12:25:11.304Z,12.83
2019-03-28T12:27:39.850Z,15.27
2019-03-28T12:30:10.392Z,15.03
2019-03-28T12:32:38.994Z,14.50
2019-03-28T12:35:08.111Z,14.83
2019-03-28T12:37:36.818Z,14.23
2019-03-28T12:40:07.598Z,13.73
2019-03-28T12:42:36.269Z,13.47
2019-03-28T12:45:10.463Z,19.20
2019-03-28T12:47:42.758Z,17.07
2019-03-28T12:50:10.433Z,13.83
2019-03-28T12:52:39.028Z,14.13
2019-03-28T12:55:09.887Z,16.23
2019-03-28T12:57:39.199Z,13.23
2019-03-28T13:00:08.682Z,16.33
2019-03-28T13:02:37.361Z,14.13
2019-03-28T13:05:06.471Z,16.20
2019-03-28T13:07:38.059Z,16.33
2019-03-28T13:10:07.676Z,14.53
2019-03-28T13:12:36.368Z,14.13
2019-03-28T13:15:05.987Z,16.60
2019-03-28T13:17:40.873Z,14.30
2019-03-28T13:20:08.840Z,14.73
2019-03-28T13:22:37.318Z,18.40
2019-03-28T13:25:06.158Z,16.70
2019-03-28T13:27:35.818Z,18.87
2019-03-28T13:30:06.854Z,15.30
2019-03-28T13:32:41.701Z,15.00
2019-03-28T13:35:07.334Z,17.47
2019-03-28T13:37:36.018Z,17.80
2019-03-28T13:40:05.053Z,12.97
2019-03-28T13:42:33.607Z,13.43
2019-03-28T13:45:02.235Z,13.97
2019-03-28T13:47:30.818Z,16.90
2019-03-28T13:49:59.417Z,14.57
2019-03-28T13:52:27.968Z,15.73
2019-03-28T13:54:57.706Z,15.50
2019-03-28T13:57:26.259Z,11.93
2019-03-28T13:59:54.827Z,15.13
2019-03-28T14:02:23.264Z,13.17
2019-03-28T14:04:51.830Z,15.17
2019-03-28T14:07:22.852Z,16.53
2019-03-28T14:09:55.114Z,20.27
2019-03-28T14:12:24.007Z,14.50
2019-03-28T14:14:52.484Z,13.57
2019-03-28T14:17:25.250Z,14.77
2019-03-28T14:19:53.979Z,13.33
2019-03-28T14:22:23.192Z,12.10
2019-03-28T14:24:52.080Z,12.87
2019-03-28T14:27:20.791Z,13.20
2019-03-28T14:29:52.955Z,14.87
2019-03-28T14:32:21.864Z,13.13
2019-03-28T14:34:51.206Z,13.90
2019-03-28T14:37:20.180Z,17.43
2019-03-28T14:39:49.314Z,14.50
2019-03-28T14:42:19.924Z,16.93
2019-03-28T14:44:48.862Z,13.87
2019-03-28T14:47:17.393Z,14.07
2019-03-28T14:49:46.616Z,15.30
2019-03-28T14:52:15.548Z,15.07
2019-03-28T14:54:47.553Z,16.60
2019-03-28T14:57:16.930Z,17.07
2019-03-28T14:59:46.089Z,14.07
2019-03-28T15:02:14.849Z,15.93
2019-03-28T15:04:43.666Z,18.17
2019-03-28T15:07:15.349Z,14.80
2019-03-28T15:09:44.402Z,18.27
2019-03-28T15:12:13.092Z,15.60
2019-03-28T15:14:42.358Z,18.40
2019-03-28T15:17:11.618Z,15.50
2019-03-28T15:19:41.976Z,18.33
2019-03-28T15:22:10.802Z,18.23
2019-03-28T15:24:39.519Z,17.03
2019-03-28T15:27:08.438Z,18.50
2019-03-28T15:29:37.490Z,18.10
2019-03-28T15:32:06.769Z,18.73
2019-03-28T15:34:35.806Z,18.30
2019-03-28T15:37:04.583Z,17.33
2019-03-28T15:39:33.369Z,18.47
2019-03-28T15:42:02.275Z,18.33
2019-03-28T15:44:30.995Z,18.03
2019-03-28T15:46:59.624Z,18.00
2019-03-28T15:49:28.622Z,19.30
2019-03-28T15:51:57.778Z,16.80
2019-03-28T15:54:26.702Z,17.60
2019-03-28T15:56:58.485Z,16.80
2019-03-28T15:59:26.393Z,18.83
2019-03-28T16:01:55.379Z,17.77
2019-03-28T16:04:24.923Z,17.33
2019-03-28T16:06:54.255Z,16.87
2019-03-28T16:09:23.301Z,18.20
2019-03-28T16:12:02.415Z,17.80
2019-03-28T16:14:24.410Z,15.90
2019-03-28T16:16:53.533Z,16.90
2019-03-28T16:19:22.357Z,20.13
2019-03-28T16:21:51.434Z,18.60
2019-03-28T16:24:21.313Z,16.63
2019-03-28T16:26:51.021Z,18.73
2019-03-28T16:29:19.761Z,17.83
2019-03-28T16:31:48.422Z,16.27
2019-03-28T16:34:17.383Z,17.53
2019-03-28T16:36:45.839Z,17.30
2019-03-28T16:39:14.433Z,19.60
2019-03-28T16:41:43.773Z,17.20
2019-03-28T16:44:12.783Z,18.03
2019-03-28T16:46:41.866Z,20.97
2019-03-28T16:49:11.063Z,18.50
2019-03-28T16:51:43.230Z,17.00
2019-03-28T16:54:10.938Z,18.80
2019-03-28T16:56:41.918Z,18.47
2019-03-28T16:59:12.185Z,16.00
2019-03-28T17:01:41.368Z,17.03
2019-03-28T17:04:19.999Z,18.30
2019-03-28T17:06:40.906Z,18.43
2019-03-28T17:09:10.086Z,17.80
2019-03-28T17:11:38.938Z,19.27
2019-03-28T17:14:07.851Z,19.73
2019-03-28T17:16:38.958Z,18.03
2019-03-28T17:19:12.129Z,18.17
2019-03-28T17:21:40.934Z,17.20
2019-03-28T17:24:09.606Z,18.20
2019-03-28T17:26:38.698Z,21.73
2019-03-28T17:29:07.946Z,22.77
2019-03-28T17:31:38.705Z,19.70
2019-03-28T17:34:07.868Z,21.50
2019-03-28T17:36:36.833Z,21.30
2019-03-28T17:39:06.381Z,21.87
2019-03-28T17:41:39.617Z,21.63
2019-03-28T17:44:08.589Z,23.60
2019-03-28T17:46:37.535Z,24.47
2019-03-28T17:49:06.389Z,23.60
2019-03-28T17:51:35.737Z,23.13
2019-03-28T17:54:07.689Z,19.43
2019-03-28T17:56:35.852Z,18.93
2019-03-28T17:59:04.768Z,23.57
2019-03-28T18:01:33.826Z,20.10
2019-03-28T18:04:03.049Z,18.27
2019-03-28T18:06:35.171Z,17.90
2019-03-28T18:09:06.493Z,16.77
2019-03-28T18:11:35.349Z,18.40
2019-03-28T18:14:04.367Z,16.47
2019-03-28T18:16:34.216Z,17.50
2019-03-28T18:19:04.029Z,15.60
2019-03-28T18:21:33.138Z,12.50
2019-03-28T18:24:02.378Z,10.07
2019-03-28T18:26:31.380Z,13.13
2019-03-28T18:29:01.149Z,16.83
2019-03-28T18:31:31.202Z,16.83
2019-03-28T18:34:00.301Z,15.43
2019-03-28T18:36:29.116Z,13.40
2019-03-28T18:38:57.832Z,15.07
2019-03-28T18:41:26.417Z,13.07
2019-03-28T18:43:57.574Z,13.93
2019-03-28T18:46:26.496Z,11.10
2019-03-28T18:48:55.202Z,11.80
2019-03-28T18:51:23.754Z,13.67
2019-03-28T18:53:52.392Z,13.10
2019-03-28T18:56:27.090Z,12.20
2019-03-28T18:58:55.678Z,12.90
2019-03-28T19:01:24.607Z,10.90
2019-03-28T19:03:53.367Z,10.07
2019-03-28T19:06:22.063Z,12.47
2019-03-28T19:08:52.326Z,11.10
2019-03-28T19:11:20.996Z,10.27
2019-03-28T19:13:49.475Z,11.77
2019-03-28T19:16:20.306Z,9.73
2019-03-28T19:18:48.722Z,10.97
2019-03-28T19:21:19.049Z,10.40
2019-03-28T19:23:47.703Z,9.73
2019-03-28T19:26:16.298Z,10.20
2019-03-28T19:28:45.966Z,9.17
2019-03-28T19:31:14.628Z,11.50
2019-03-28T19:33:44.917Z,10.07
2019-03-28T19:36:14.079Z,9.97
2019-03-28T19:38:43.036Z,8.93
2019-03-28T19:41:11.606Z,9.00
2019-03-28T19:43:41.701Z,11.20
2019-03-28T19:46:15.010Z,10.80
2019-03-28T19:48:42.568Z,11.53
2019-03-28T19:51:11.221Z,9.17
2019-03-28T19:53:39.676Z,11.20
2019-03-28T19:56:09.154Z,8.57
2019-03-28T19:58:39.969Z,13.33
2019-03-28T20:01:09.773Z,10.57
2019-03-28T20:03:38.466Z,8.77
2019-03-28T20:06:07.044Z,10.50
2019-03-28T20:08:35.602Z,10.30
2019-03-28T20:11:05.169Z,10.27
2019-03-28T20:13:33.822Z,15.83
2019-03-28T20:16:02.542Z,11.83
2019-03-28T20:18:31.935Z,12.57
2019-03-28T20:21:01.133Z,12.67
2019-03-28T20:23:35.759Z,11.10
2019-03-28T20:26:04.773Z,16.53
2019-03-28T20:28:33.597Z,16.00
2019-03-28T20:31:02.403Z,19.23
2019-03-28T20:33:32.274Z,14.00
2019-03-28T20:36:23.586Z,15.17
2019-03-28T20:38:31.358Z,14.30
2019-03-28T20:41:00.085Z,15.63
2019-03-28T20:43:28.717Z,14.47
2019-03-28T20:46:00.287Z,15.10
2019-03-28T20:48:28.870Z,14.70
2019-03-28T20:50:57.857Z,14.37
2019-03-28T20:53:26.887Z,15.20
2019-03-28T20:55:55.867Z,15.87
2019-03-28T20:58:30.521Z,15.23
2019-03-28T21:00:58.164Z,13.63
2019-03-28T21:03:26.713Z,16.67
2019-03-28T21:05:56.219Z,15.20
2019-03-28T21:08:24.796Z,14.17
2019-03-28T21:10:53.374Z,19.07
2019-03-28T21:13:22.131Z,17.40
2019-03-28T21:15:50.722Z,15.20
2019-03-28T21:18:19.427Z,16.70
2019-03-28T21:20:47.976Z,16.03
2019-03-28T21:23:16.564Z,15.60
2019-03-28T21:25:45.119Z,17.83
2019-03-28T21:28:14.042Z,18.63
2019-03-28T21:30:47.485Z,18.63
2019-03-28T21:33:15.142Z,14.80
2019-03-28T21:35:46.803Z,17.77
2019-03-28T21:38:17.263Z,19.30
2019-03-28T21:40:46.546Z,15.97
2019-03-28T21:43:15.400Z,19.37
2019-03-28T21:45:45.442Z,18.77
2019-03-28T21:48:16.917Z,16.83
2019-03-28T21:50:46.337Z,19.00
2019-03-28T21:53:15.348Z,22.90
2019-03-28T21:55:54.325Z,20.87
2019-03-28T21:58:15.066Z,20.53
2019-03-28T22:00:43.958Z,20.23
2019-03-28T22:03:12.974Z,18.30
2019-03-28T22:05:46.805Z,22.50
2019-03-28T22:08:17.557Z,22.13
2019-03-28T22:10:46.174Z,22.80
2019-03-28T22:13:14.886Z,23.07
2019-03-28T22:15:43.358Z,19.83
2019-03-28T22:18:12.331Z,22.20
2019-03-28T22:20:41.337Z,23.20
2019-03-28T22:23:13.340Z,23.40
2019-03-28T22:25:41.020Z,21.80
2019-03-28T22:28:10.210Z,28.73
2019-03-28T22:30:39.517Z,23.07
2019-03-28T22:33:08.498Z,26.67
2019-03-28T22:35:37.201Z,27.10
2019-03-28T22:38:06.305Z,22.63
2019-03-28T22:40:35.494Z,23.90
2019-03-28T22:43:04.552Z,27.80
2019-03-28T22:45:33.273Z,25.43
2019-03-28T22:48:10.699Z,24.90
2019-03-28T22:50:33.605Z,26.83
2019-03-28T22:53:02.679Z,21.90
2019-03-28T22:55:32.887Z,28.50
2019-03-28T22:58:00.562Z,27.03
2019-03-28T23:00:47.987Z,24.47
2019-03-28T23:03:16.737Z,23.40
2019-03-28T23:05:45.911Z,25.33
2019-03-28T23:11:05.038Z,22.67
2019-03-28T23:13:44.685Z,21.03
2019-03-28T23:16:24.588Z,25.50
2019-03-28T23:19:05.349Z,24.77
2019-03-28T23:21:45.940Z,25.75
2019-03-28T23:24:27.182Z,21.90
2019-03-28T23:27:08.751Z,30.00
2019-03-28T23:29:49.517Z,27.95
2019-03-28T23:32:33.853Z,25.35
2019-03-28T23:35:15.051Z,24.07
2019-03-28T23:37:56.129Z,25.92
2019-03-28T23:40:37.048Z,28.47
2019-03-28T23:43:17.485Z,23.55
2019-03-28T23:45:56.986Z,25.25
2019-03-28T23:48:37.641Z,26.65
2019-03-28T23:51:17.322Z,25.08
2019-03-28T23:53:57.443Z,28.90
2019-03-28T23:56:37.876Z,24.32
2019-03-28T23:59:18.851Z,28.32
